Time;durP1;ratioP1;P1;durP2;ratioP2;P2;SDS_P1;SDS_P2;PMS_P1;PMS_P2;Temp;Humidity;BMP_temperature;BMP_pressure;BME280_temperature;BME280_humidity;BME280_pressure;Samples;Min_cycle;Max_cycle;Signal;HPM_P1;HPM_P2
2022/09/17 00:01:51;;;;;;;2.50;0.90;;;10.10;99.90;;;;;;10390474;28;20245;-76
2022/09/17 00:06:52;;;;;;;1.37;0.80;;;10.00;99.90;;;;;;10408726;28;20216;-77
2022/09/17 00:11:53;;;;;;;4.77;0.87;;;10.00;99.90;;;;;;10399168;28;20224;-75
2022/09/17 00:16:53;;;;;;;2.13;0.83;;;9.90;99.90;;;;;;10391276;28;20586;-75
2022/09/17 00:21:54;;;;;;;3.20;0.80;;;9.90;99.90;;;;;;10397250;28;20302;-75
2022/09/17 00:26:55;;;;;;;4.67;1.30;;;9.90;99.90;;;;;;10390566;28;20354;-77
2022/09/17 00:31:56;;;;;;;3.00;1.10;;;9.80;99.90;;;;;;10397850;28;20277;-77
2022/09/17 00:36:59;;;;;;;2.03;0.73;;;9.80;99.90;;;;;;10396902;28;20256;-76
2022/09/17 00:42:04;;;;;;;2.47;0.90;;;9.80;99.90;;;;;;10390210;28;20223;-76
2022/09/17 00:47:12;;;;;;;1.80;0.93;;;9.90;99.90;;;;;;10396798;28;20215;-76
2022/09/17 00:52:20;;;;;;;3.53;0.90;;;9.90;99.90;;;;;;10389015;28;20220;-76
2022/09/17 00:57:21;;;;;;;3.43;1.10;;;9.90;99.90;;;;;;10389265;28;20323;-76
2022/09/17 01:02:22;;;;;;;4.53;1.30;;;9.90;99.90;;;;;;10391928;28;20306;-72
2022/09/17 01:07:43;;;;;;;1.77;0.80;;;9.90;99.90;;;;;;10407244;28;20219;-72
2022/09/17 01:12:49;;;;;;;1.70;0.73;;;9.70;99.90;;;;;;10399242;28;20211;-73
2022/09/17 01:18:08;;;;;;;3.13;1.07;;;9.70;99.90;;;;;;10396026;28;20229;-71
2022/09/17 01:23:44;;;;;;;2.07;0.90;;;9.70;99.90;;;;;;10389021;28;20699;-72
2022/09/17 01:29:11;;;;;;;3.83;1.23;;;9.60;99.90;;;;;;10395408;28;20227;-71
2022/09/17 01:34:39;;;;;;;2.60;1.10;;;9.50;99.90;;;;;;10378275;28;20224;-71
2022/09/17 01:39:49;;;;;;;1.83;0.90;;;9.50;99.90;;;;;;10396349;28;20753;-71
2022/09/17 01:45:28;;;;;;;2.57;1.00;;;9.60;99.90;;;;;;10394379;28;20227;-73
2022/09/17 01:50:43;;;;;;;3.20;0.87;;;9.60;99.90;;;;;;10355293;28;20270;-72
2022/09/17 01:55:48;;;;;;;2.60;0.90;;;9.80;99.90;;;;;;10389016;28;20207;-72
2022/09/17 02:00:54;;;;;;;4.00;0.80;;;9.90;99.90;;;;;;10386265;28;20765;-72
2022/09/17 02:06:28;;;;;;;3.13;1.20;;;10.00;99.90;;;;;;10400874;28;20226;-72
2022/09/17 02:11:31;;;;;;;1.97;0.93;;;10.20;99.90;;;;;;10401735;28;20215;-70
2022/09/17 02:16:35;;;;;;;3.73;1.30;;;10.30;99.90;;;;;;10401724;28;20651;-71
2022/09/17 02:22:00;;;;;;;3.70;1.30;;;10.30;99.90;;;;;;10386105;28;20221;-71
2022/09/17 02:27:05;;;;;;;3.67;1.00;;;10.40;99.90;;;;;;10386571;28;20224;-72
2022/09/17 02:32:07;;;;;;;3.37;1.10;;;10.50;99.90;;;;;;10392917;28;20626;-72
2022/09/17 02:37:08;;;;;;;2.07;1.07;;;10.50;99.90;;;;;;10387446;28;20339;-72
2022/09/17 02:42:23;;;;;;;7.03;1.50;;;10.50;99.90;;;;;;10394385;28;20720;-71
2022/09/17 02:47:32;;;;;;;2.83;1.03;;;10.60;99.90;;;;;;10401078;28;20250;-71
2022/09/17 02:53:01;;;;;;;4.87;1.53;;;10.70;99.90;;;;;;10397976;28;20224;-72
2022/09/17 02:58:08;;;;;;;2.47;0.97;;;10.70;99.90;;;;;;10408986;28;20228;-71
2022/09/17 03:03:31;;;;;;;4.33;1.07;;;10.80;99.90;;;;;;10402201;28;20226;-72
2022/09/17 03:08:39;;;;;;;5.60;1.93;;;10.80;99.90;;;;;;10402667;28;20217;-72
2022/09/17 03:13:40;;;;;;;3.50;1.47;;;10.80;99.90;;;;;;10398373;28;20256;-72
2022/09/17 03:18:40;;;;;;;3.83;1.37;;;10.80;99.90;;;;;;10399516;28;20256;-72
2022/09/17 03:23:45;;;;;;;5.73;1.23;;;10.80;99.90;;;;;;10399792;28;20216;-71
2022/09/17 03:28:46;;;;;;;5.90;1.40;;;10.90;99.90;;;;;;10393866;28;20700;-72
2022/09/17 03:33:47;;;;;;;5.13;1.50;;;10.90;99.90;;;;;;10405694;28;20219;-72
2022/09/17 03:38:47;;;;;;;4.03;1.40;;;10.90;99.90;;;;;;10391693;28;20232;-73
2022/09/17 03:43:48;;;;;;;4.87;1.50;;;10.90;99.90;;;;;;10403809;28;20628;-72
2022/09/17 03:48:49;;;;;;;1.37;0.90;;;11.00;99.90;;;;;;10398367;28;20217;-72
2022/09/17 03:53:50;;;;;;;4.13;1.30;;;11.00;99.90;;;;;;10400214;28;20275;-72
2022/09/17 03:58:50;;;;;;;3.20;1.23;;;10.90;99.90;;;;;;10405092;28;20224;-72
2022/09/17 04:03:51;;;;;;;4.13;1.27;;;11.00;99.90;;;;;;10391681;28;20239;-72
2022/09/17 04:08:52;;;;;;;5.60;1.43;;;11.00;99.90;;;;;;10404941;28;20620;-72
2022/09/17 04:13:52;;;;;;;6.43;1.60;;;11.00;99.90;;;;;;10405807;28;20243;-71
2022/09/17 04:18:56;;;;;;;6.50;1.53;;;11.00;99.90;;;;;;10404882;28;20235;-72
2022/09/17 04:23:57;;;;;;;7.87;1.63;;;11.00;99.90;;;;;;10404618;28;20750;-71
2022/09/17 04:28:57;;;;;;;2.23;1.33;;;11.00;99.90;;;;;;10396793;28;20275;-71
2022/09/17 04:33:58;;;;;;;6.57;1.50;;;11.10;99.90;;;;;;10396810;28;20217;-71
2022/09/17 04:38:58;;;;;;;5.40;1.50;;;11.20;99.90;;;;;;10397251;28;20350;-71
2022/09/17 04:43:59;;;;;;;6.27;1.80;;;11.20;99.90;;;;;;10388185;28;20221;-72
2022/09/17 04:48:59;;;;;;;5.70;1.67;;;11.20;99.90;;;;;;10396255;28;20301;-71
2022/09/17 04:54:00;;;;;;;5.23;1.40;;;11.20;99.90;;;;;;10389993;28;20224;-71
2022/09/17 04:59:01;;;;;;;4.97;1.90;;;11.10;99.90;;;;;;10402423;28;20252;-71
2022/09/17 05:04:04;;;;;;;6.50;1.80;;;11.10;99.90;;;;;;10402786;28;20216;-71
2022/09/17 05:09:05;;;;;;;5.57;2.17;;;11.10;99.90;;;;;;10403499;28;20255;-71
2022/09/17 05:14:06;;;;;;;7.07;1.80;;;11.10;99.90;;;;;;10395653;28;20223;-72
2022/09/17 05:19:07;;;;;;;2.70;1.50;;;11.10;99.90;;;;;;10396928;28;20263;-71
2022/09/17 05:24:08;;;;;;;6.93;1.63;;;11.10;99.90;;;;;;10394986;28;20278;-72
2022/09/17 05:29:08;;;;;;;4.57;1.80;;;11.10;99.90;;;;;;10395827;28;20221;-71
2022/09/17 05:34:09;;;;;;;5.10;2.27;;;11.10;99.90;;;;;;10394219;28;20212;-72
2022/09/17 05:39:09;;;;;;;4.90;1.47;;;11.10;99.90;;;;;;10395310;28;20229;-72
2022/09/17 05:44:13;;;;;;;8.03;1.87;;;11.10;99.90;;;;;;10387225;28;20217;-72
2022/09/17 05:49:16;;;;;;;5.67;2.23;;;11.20;99.90;;;;;;10399459;28;20220;-71
2022/09/17 05:54:17;;;;;;;4.47;1.57;;;11.20;99.90;;;;;;10392352;28;20259;-72
2022/09/17 05:59:17;;;;;;;7.17;1.77;;;11.30;99.90;;;;;;10389223;28;20221;-72
2022/09/17 06:04:18;;;;;;;2.57;1.40;;;11.50;99.90;;;;;;10396745;28;20327;-72
2022/09/17 06:09:19;;;;;;;6.07;1.90;;;11.80;99.90;;;;;;10403194;28;20212;-72
2022/09/17 06:14:20;;;;;;;3.07;1.50;;;12.00;99.90;;;;;;10399683;28;20243;-72
2022/09/17 06:19:20;;;;;;;4.93;1.57;;;12.10;99.90;;;;;;10391748;28;20224;-72
2022/09/17 06:24:24;;;;;;;5.07;1.90;;;12.20;99.90;;;;;;10398160;28;20327;-72
2022/09/17 06:29:25;;;;;;;5.40;1.60;;;12.60;99.90;;;;;;10397785;28;20232;-72
2022/09/17 06:34:26;;;;;;;3.50;1.33;;;13.20;99.90;;;;;;10402592;28;20254;-72
2022/09/17 06:39:26;;;;;;;4.40;1.70;;;13.40;99.90;;;;;;10402000;28;20281;-72
2022/09/17 06:44:27;;;;;;;5.73;1.70;;;13.50;99.90;;;;;;10398239;28;20214;-72
2022/09/17 06:49:29;;;;;;;5.60;1.70;;;13.60;99.90;;;;;;10402714;28;20219;-72
2022/09/17 06:54:30;;;;;;;4.00;1.40;;;14.00;99.90;;;;;;10399898;28;20279;-72
2022/09/17 06:59:31;;;;;;;5.73;1.73;;;14.70;99.90;;;;;;10403723;28;20275;-72
2022/09/17 07:04:31;;;;;;;7.47;2.50;;;15.20;99.90;;;;;;10397077;28;20213;-72
2022/09/17 07:09:32;;;;;;;5.70;1.80;;;15.30;99.90;;;;;;10396360;28;20275;-71
2022/09/17 07:14:35;;;;;;;5.90;1.90;;;15.10;99.90;;;;;;10405238;28;20786;-72
2022/09/17 07:19:37;;;;;;;6.40;1.70;;;15.20;99.90;;;;;;10402363;28;20589;-71
2022/09/17 07:24:38;;;;;;;6.07;1.60;;;15.90;99.90;;;;;;10397284;28;20212;-72
2022/09/17 07:29:40;;;;;;;5.70;1.90;;;16.10;99.90;;;;;;10394176;28;20270;-72
2022/09/17 07:34:40;;;;;;;9.90;2.07;;;15.90;99.90;;;;;;10404430;28;20223;-72
2022/09/17 07:39:44;;;;;;;6.97;1.97;;;15.40;99.90;;;;;;10394141;28;20221;-72
2022/09/17 07:44:45;;;;;;;8.03;2.10;;;14.90;99.90;;;;;;10404005;28;20272;-71
2022/09/17 07:49:46;;;;;;;4.13;1.67;;;14.40;99.90;;;;;;10396555;28;20605;-72
2022/09/17 07:54:47;;;;;;;10.10;1.33;;;14.20;99.90;;;;;;10392796;28;20221;-72
2022/09/17 07:59:50;;;;;;;8.77;1.93;;;15.00;99.90;;;;;;10391053;28;20217;-72
2022/09/17 08:04:51;;;;;;;6.33;1.80;;;17.80;99.90;;;;;;10405521;28;20214;-72
2022/09/17 08:09:51;;;;;;;7.53;2.17;;;19.00;99.90;;;;;;10414336;28;20214;-71
2022/09/17 08:14:52;;;;;;;7.27;1.67;;;20.70;99.90;;;;;;10398011;28;20227;-72
2022/09/17 08:19:53;;;;;;;7.73;1.90;;;20.80;99.30;;;;;;10391574;28;20226;-72
2022/09/17 08:24:53;;;;;;;6.83;1.83;;;19.60;99.90;;;;;;10397286;28;20220;-72
2022/09/17 08:29:54;;;;;;;6.40;1.97;;;18.40;99.90;;;;;;10388982;28;20240;-71
2022/09/17 08:34:55;;;;;;;8.47;1.93;;;18.00;99.90;;;;;;10404778;28;20246;-72
2022/09/17 08:39:56;;;;;;;7.27;2.03;;;19.30;99.90;;;;;;10397227;28;20239;-70
2022/09/17 08:44:58;;;;;;;9.73;1.97;;;18.80;99.90;;;;;;10402586;28;20584;-72
2022/09/17 08:50:05;;;;;;;5.10;1.87;;;18.10;99.90;;;;;;10396388;28;20215;-72
2022/09/17 08:55:15;;;;;;;8.40;2.20;;;17.80;99.90;;;;;;10388428;28;20218;-73
2022/09/17 09:00:18;;;;;;;8.03;2.10;;;17.60;99.90;;;;;;10395221;28;20232;-71
2022/09/17 09:05:26;;;;;;;5.23;1.73;;;18.30;99.90;;;;;;10384981;28;20193;-72
2022/09/17 09:10:54;;;;;;;4.60;1.63;;;22.70;92.90;;;;;;10396381;28;20701;-71
2022/09/17 09:15:58;;;;;;;5.60;1.57;;;22.50;87.00;;;;;;10396011;28;20635;-71
2022/09/17 09:21:29;;;;;;;6.73;1.80;;;22.70;84.40;;;;;;10402454;28;20235;-72
2022/09/17 09:27:00;;;;;;;6.60;1.77;;;21.90;89.00;;;;;;10392230;28;20236;-72
2022/09/17 09:32:04;;;;;;;6.97;2.00;;;25.50;68.10;;;;;;10386615;28;20217;-72
2022/09/17 09:37:30;;;;;;;5.90;1.67;;;25.70;60.80;;;;;;10394531;28;20323;-72
2022/09/17 09:42:38;;;;;;;3.77;1.67;;;25.80;58.70;;;;;;10392145;28;20219;-73
2022/09/17 09:47:44;;;;;;;4.90;1.90;;;28.60;53.30;;;;;;10401184;28;20222;-72
2022/09/17 09:52:50;;;;;;;7.70;2.30;;;29.70;49.10;;;;;;10387812;28;20681;-72
2022/09/17 09:57:55;;;;;;;4.43;1.47;;;30.30;46.20;;;;;;10394051;28;20244;-71
2022/09/17 10:02:59;;;;;;;2.90;1.40;;;29.90;44.80;;;;;;10387479;28;20243;-73
2022/09/17 10:07:59;;;;;;;5.40;1.70;;;26.50;49.20;;;;;;10419569;28;20741;-73
2022/09/17 10:13:13;;;;;;;8.67;1.97;;;23.50;55.30;;;;;;10401500;28;20286;-72
2022/09/17 10:18:20;;;;;;;3.07;1.20;;;21.10;67.70;;;;;;10387407;28;20228;-71
2022/09/17 10:23:22;;;;;;;5.47;0.70;;;18.30;86.00;;;;;;10391207;28;20265;-72
2022/09/17 10:28:42;;;;;;;2.10;0.70;;;16.60;95.50;;;;;;10389591;28;20233;-72
2022/09/17 10:34:01;;;;;;;2.07;0.80;;;15.80;99.90;;;;;;10388157;28;20217;-72
2022/09/17 10:39:30;;;;;;;2.60;0.70;;;16.00;99.90;;;;;;10396098;28;20225;-72
2022/09/17 10:44:35;;;;;;;12.30;7.00;;;16.70;99.90;;;;;;10396339;28;20724;-72
2022/09/17 10:49:41;;;;;;;3.73;2.33;;;17.60;99.90;;;;;;10398339;28;20226;-71
2022/09/17 10:55:08;;;;;;;4.07;1.13;;;18.90;99.90;;;;;;10399609;28;20219;-72
2022/09/17 11:00:16;;;;;;;5.57;1.33;;;19.20;99.40;;;;;;10392410;28;20230;-72
2022/09/17 11:05:35;;;;;;;3.50;1.07;;;19.10;97.60;;;;;;10398688;28;20209;-72
2022/09/17 11:10:42;;;;;;;4.90;1.50;;;19.00;97.00;;;;;;10397596;28;20302;-72
2022/09/17 11:15:42;;;;;;;5.97;3.20;;;18.90;96.40;;;;;;10400425;28;20293;-72
2022/09/17 11:21:24;;;;;;;7.30;3.80;;;19.00;98.40;;;;;;10400279;28;20232;-71
2022/09/17 11:26:50;;;;;;;5.97;2.83;;;18.80;97.30;;;;;;10375093;28;20227;-71
2022/09/17 11:32:21;;;;;;;9.50;7.07;;;18.80;95.80;;;;;;10399938;28;20250;-72
2022/09/17 11:37:31;;;;;;;5.10;2.80;;;18.80;95.40;;;;;;10409934;28;20223;-72
2022/09/17 11:42:47;;;;;;;8.23;2.03;;;19.00;94.90;;;;;;10394402;28;20220;-71
2022/09/17 11:47:54;;;;;;;3.30;1.50;;;19.10;94.90;;;;;;10405007;28;20233;-72
2022/09/17 11:53:02;;;;;;;3.50;1.40;;;19.10;94.30;;;;;;10391580;28;20345;-73
2022/09/17 11:58:13;;;;;;;7.00;1.53;;;19.30;93.80;;;;;;10389738;28;20226;-72
2022/09/17 12:03:31;;;;;;;5.23;1.80;;;19.00;92.80;;;;;;10403726;28;20215;-72
2022/09/17 12:08:59;;;;;;;6.27;1.40;;;18.60;92.70;;;;;;10411861;28;20218;-72
2022/09/17 12:14:19;;;;;;;7.23;1.70;;;18.20;93.40;;;;;;10401884;28;20265;-73
2022/09/17 12:19:39;;;;;;;5.80;1.47;;;18.40;94.60;;;;;;10393086;28;20257;-72
2022/09/17 12:24:42;;;;;;;4.80;1.30;;;19.30;92.40;;;;;;10390368;28;20215;-71
2022/09/17 12:30:01;;;;;;;4.23;1.40;;;19.70;88.50;;;;;;10397876;28;20221;-72
2022/09/17 12:35:32;;;;;;;5.63;1.70;;;19.40;88.90;;;;;;10405109;28;20230;-71
2022/09/17 12:40:44;;;;;;;4.27;1.10;;;19.60;85.80;;;;;;10390521;28;20224;-72
2022/09/17 12:45:52;;;;;;;5.47;1.37;;;19.70;83.90;;;;;;10389158;28;20326;-72
2022/09/17 12:51:06;;;;;;;5.03;1.20;;;19.50;82.20;;;;;;10402798;28;20341;-71
2022/09/17 12:56:31;;;;;;;3.23;0.83;;;19.20;83.20;;;;;;10388370;28;20224;-72
2022/09/17 13:01:47;;;;;;;3.87;1.07;;;19.10;82.20;;;;;;10392268;28;20231;-71
2022/09/17 13:07:19;;;;;;;2.83;0.70;;;19.10;81.70;;;;;;10394985;28;20218;-72
2022/09/17 13:12:41;;;;;;;5.53;1.33;;;18.80;84.00;;;;;;10395923;28;20215;-70
2022/09/17 13:18:09;;;;;;;2.70;0.93;;;18.10;90.20;;;;;;10389226;28;20254;-72
2022/09/17 13:23:11;;;;;;;2.93;0.97;;;17.80;88.60;;;;;;10387266;28;20221;-73
2022/09/17 13:28:12;;;;;;;2.73;0.60;;;17.50;87.90;;;;;;10401407;28;20222;-73
2022/09/17 13:33:51;;;;;;;2.10;0.60;;;17.40;88.40;;;;;;10397342;28;20208;-71
2022/09/17 13:38:51;;;;;;;5.77;1.23;;;17.10;87.50;;;;;;10395933;28;20229;-72
2022/09/17 13:43:55;;;;;;;3.93;1.00;;;17.00;88.80;;;;;;10387436;28;20209;-72
2022/09/17 13:49:06;;;;;;;2.30;0.97;;;16.80;88.30;;;;;;10387584;28;20217;-71
2022/09/17 13:54:10;;;;;;;6.37;1.50;;;16.60;90.40;;;;;;10371847;28;20215;-72
2022/09/17 13:59:26;;;;;;;4.23;1.20;;;16.30;99.90;;;;;;10393308;28;20593;-72
2022/09/17 14:04:41;;;;;;;5.77;1.20;;;16.00;99.90;;;;;;10397540;28;20220;-71
2022/09/17 14:09:49;;;;;;;3.63;1.10;;;15.70;99.90;;;;;;10398195;28;20234;-72
2022/09/17 14:14:56;;;;;;;3.50;1.30;;;15.70;99.90;;;;;;10389001;28;20217;-71
2022/09/17 14:19:56;;;;;;;5.03;0.90;;;15.70;99.90;;;;;;10396377;28;20308;-70
2022/09/17 14:24:57;;;;;;;3.13;0.73;;;15.90;99.90;;;;;;10392955;28;20300;-72
2022/09/17 14:30:17;;;;;;;2.40;0.50;;;16.00;99.90;;;;;;10392883;28;20228;-73
2022/09/17 14:35:51;;;;;;;3.10;0.73;;;16.20;99.90;;;;;;10386553;28;20224;-73
2022/09/17 14:41:14;;;;;;;4.60;1.07;;;16.30;99.90;;;;;;10380213;28;20229;-72
2022/09/17 14:46:28;;;;;;;2.53;0.90;;;16.60;99.90;;;;;;10405673;28;20228;-71
2022/09/17 14:51:29;;;;;;;1.30;0.40;;;16.60;99.90;;;;;;10398173;28;20222;-74
2022/09/17 14:56:32;;;;;;;1.20;0.50;;;16.30;99.90;;;;;;10397813;28;20311;-71
2022/09/17 15:01:32;;;;;;;1.67;0.50;;;16.30;99.90;;;;;;10401639;28;20695;-72
2022/09/17 15:06:33;;;;;;;1.00;0.40;;;16.90;99.90;;;;;;10408101;28;20270;-71
2022/09/17 15:11:39;;;;;;;0.80;0.40;;;17.10;99.90;;;;;;10401429;28;20231;-72
2022/09/17 15:16:47;;;;;;;2.30;0.60;;;17.00;99.90;;;;;;10395357;28;20229;-72
2022/09/17 15:21:51;;;;;;;1.33;0.60;;;17.00;99.90;;;;;;10398491;28;20688;-72
2022/09/17 15:26:55;;;;;;;0.60;0.47;;;16.80;99.90;;;;;;10395136;28;20761;-72
2022/09/17 15:31:56;;;;;;;0.97;0.50;;;16.90;99.90;;;;;;10420053;28;20235;-72
2022/09/17 15:37:19;;;;;;;1.83;0.60;;;16.80;99.90;;;;;;10406816;28;20238;-72
2022/09/17 15:42:28;;;;;;;1.67;0.50;;;16.30;99.90;;;;;;10393798;28;20225;-71
2022/09/17 15:47:52;;;;;;;2.80;0.80;;;16.20;99.90;;;;;;10395772;28;20685;-72
2022/09/17 15:53:07;;;;;;;1.97;0.70;;;16.00;99.90;;;;;;10403828;28;20216;-72
2022/09/17 15:58:20;;;;;;;3.73;1.20;;;16.10;99.90;;;;;;10399269;28;20714;-72
2022/09/17 16:03:38;;;;;;;1.63;0.70;;;16.00;99.90;;;;;;10393878;28;20221;-72
2022/09/17 16:08:39;;;;;;;3.57;0.87;;;15.70;99.90;;;;;;10390771;28;20259;-72
2022/09/17 16:13:40;;;;;;;4.40;0.70;;;15.40;99.90;;;;;;10409966;28;20235;-71
2022/09/17 16:18:40;;;;;;;3.03;0.63;;;15.30;99.90;;;;;;10383754;28;20233;-73
2022/09/17 16:23:41;;;;;;;1.83;0.63;;;15.20;99.90;;;;;;10408340;28;20259;-73
2022/09/17 16:28:42;;;;;;;4.77;2.30;;;15.10;99.90;;;;;;10396279;28;20212;-73
2022/09/17 16:33:43;;;;;;;2.70;0.80;;;15.20;99.90;;;;;;10402403;28;20227;-72
2022/09/17 16:38:46;;;;;;;1.93;0.80;;;15.20;99.90;;;;;;10391721;28;20225;-72
2022/09/17 16:43:47;;;;;;;2.40;1.40;;;15.30;99.90;;;;;;10363844;28;20217;-71
2022/09/17 16:48:51;;;;;;;2.73;0.80;;;15.30;99.90;;;;;;10369270;28;20681;-71
2022/09/17 16:53:52;;;;;;;4.60;1.80;;;15.10;99.90;;;;;;10386177;28;20232;-71
2022/09/17 16:58:55;;;;;;;1.20;0.63;;;15.00;99.90;;;;;;10387278;28;20229;-71
2022/09/17 17:03:58;;;;;;;0.77;0.63;;;14.90;99.90;;;;;;10394675;28;20219;-71
2022/09/17 17:08:59;;;;;;;3.67;0.87;;;14.80;99.90;;;;;;10394677;28;20267;-71
2022/09/17 17:14:04;;;;;;;1.73;1.10;;;14.70;99.90;;;;;;10395147;28;20239;-71
2022/09/17 17:19:05;;;;;;;1.97;1.17;;;14.50;99.90;;;;;;10388592;28;20224;-71
2022/09/17 17:24:05;;;;;;;1.33;0.90;;;14.50;99.90;;;;;;10395147;28;20243;-71
2022/09/17 17:29:07;;;;;;;2.23;0.93;;;14.50;99.90;;;;;;10395336;28;20217;-72
2022/09/17 17:34:09;;;;;;;1.70;0.90;;;14.40;99.90;;;;;;10398244;28;20222;-74
2022/09/17 17:39:10;;;;;;;1.70;0.90;;;14.20;99.90;;;;;;10398808;28;20221;-74
2022/09/17 17:44:11;;;;;;;1.63;0.67;;;14.10;99.90;;;;;;10395224;28;20227;-70
2022/09/17 17:49:12;;;;;;;1.70;0.70;;;13.90;99.90;;;;;;10394270;28;20974;-72
2022/09/17 17:54:13;;;;;;;1.60;0.63;;;13.70;99.90;;;;;;10388352;28;20233;-71
2022/09/17 17:59:14;;;;;;;3.07;0.70;;;13.60;99.90;;;;;;10394310;28;20227;-72
2022/09/17 18:04:15;;;;;;;3.40;0.57;;;13.40;99.90;;;;;;10389335;28;20296;-72
2022/09/17 18:09:16;;;;;;;2.90;1.00;;;13.00;99.90;;;;;;10387906;28;20271;-72
2022/09/17 18:14:16;;;;;;;1.50;0.70;;;12.60;99.90;;;;;;10403138;28;20266;-71
2022/09/17 18:19:17;;;;;;;3.10;0.70;;;12.30;99.90;;;;;;10394259;28;20221;-72
2022/09/17 18:24:17;;;;;;;1.93;0.90;;;12.20;99.90;;;;;;10392215;28;20306;-71
2022/09/17 18:29:18;;;;;;;3.70;0.93;;;12.10;99.90;;;;;;10388937;28;20822;-71
2022/09/17 18:34:18;;;;;;;1.93;0.97;;;12.10;99.90;;;;;;10403054;28;20208;-72
2022/09/17 18:39:20;;;;;;;1.50;1.00;;;12.10;99.90;;;;;;10390584;28;20268;-73
2022/09/17 18:44:21;;;;;;;4.47;1.50;;;12.10;99.90;;;;;;10394980;28;20226;-71
2022/09/17 18:49:22;;;;;;;3.67;1.10;;;12.20;99.90;;;;;;10390766;28;20283;-73
2022/09/17 18:54:22;;;;;;;2.43;1.03;;;12.20;99.90;;;;;;10387389;28;20251;-71
2022/09/17 18:59:23;;;;;;;4.20;0.90;;;12.20;99.90;;;;;;10408650;28;20231;-71
2022/09/17 19:04:24;;;;;;;2.07;0.70;;;12.20;99.90;;;;;;10387936;28;20216;-72
2022/09/17 19:09:25;;;;;;;1.63;0.90;;;12.10;99.90;;;;;;10396971;28;20232;-70
2022/09/17 19:14:25;;;;;;;3.27;1.03;;;12.00;99.90;;;;;;10385563;28;20221;-67
2022/09/17 19:19:26;;;;;;;5.43;0.83;;;12.00;99.90;;;;;;10393281;28;20426;-73
2022/09/17 19:24:27;;;;;;;2.83;1.50;;;11.90;99.90;;;;;;10391186;28;20216;-78
2022/09/17 19:29:27;;;;;;;3.47;0.97;;;11.70;99.90;;;;;;10396316;28;20216;-77
2022/09/17 19:34:28;;;;;;;3.07;1.20;;;11.60;99.90;;;;;;10410119;28;20714;-74
2022/09/17 19:39:29;;;;;;;2.93;1.10;;;11.40;99.90;;;;;;10413691;28;20244;-73
2022/09/17 19:44:31;;;;;;;4.37;1.70;;;11.30;99.90;;;;;;10402414;28;20232;-72
2022/09/17 19:49:32;;;;;;;5.83;1.47;;;11.30;99.90;;;;;;10391666;28;20221;-75
2022/09/17 19:54:33;;;;;;;6.20;1.20;;;11.20;99.90;;;;;;10410468;28;20593;-73
2022/09/17 19:59:33;;;;;;;2.80;1.10;;;11.10;99.90;;;;;;10400280;28;20727;-73
2022/09/17 20:04:34;;;;;;;4.53;0.80;;;11.00;99.90;;;;;;10413312;28;20234;-74
2022/09/17 20:09:34;;;;;;;5.67;1.37;;;10.90;99.90;;;;;;10412067;28;20720;-75
2022/09/17 20:14:35;;;;;;;4.17;1.10;;;10.80;99.90;;;;;;10390239;28;20228;-74
2022/09/17 20:19:36;;;;;;;3.90;1.13;;;10.80;99.90;;;;;;10420280;28;20221;-74
2022/09/17 20:24:36;;;;;;;2.30;0.90;;;10.60;99.90;;;;;;10396789;28;20220;-75
2022/09/17 20:29:37;;;;;;;4.00;1.10;;;10.50;99.90;;;;;;10405477;28;20681;-74
2022/09/17 20:34:38;;;;;;;2.23;1.20;;;10.40;99.90;;;;;;10389646;28;20233;-75
2022/09/17 20:39:38;;;;;;;3.50;1.10;;;10.40;99.90;;;;;;10395511;28;20243;-75
2022/09/17 20:44:40;;;;;;;2.23;1.37;;;10.30;99.90;;;;;;10404852;28;20306;-75
2022/09/17 20:49:40;;;;;;;5.47;1.40;;;10.40;99.90;;;;;;10396680;28;20219;-74
2022/09/17 20:54:41;;;;;;;2.73;1.13;;;10.50;99.90;;;;;;10404531;28;20239;-75
2022/09/17 20:59:51;;;;;;;4.17;1.10;;;10.70;99.90;;;;;;10388385;28;20233;-76
2022/09/17 21:04:57;;;;;;;6.20;1.53;;;10.80;99.90;;;;;;10411835;28;20315;-73
2022/09/17 21:09:58;;;;;;;3.83;1.20;;;10.90;99.90;;;;;;10403428;28;20231;-74
2022/09/17 21:14:58;;;;;;;3.07;1.27;;;10.80;99.90;;;;;;10403080;28;20572;-73
2022/09/17 21:19:59;;;;;;;3.83;1.17;;;10.80;99.90;;;;;;10387958;28;20300;-73
2022/09/17 21:25:00;;;;;;;4.40;1.20;;;10.90;99.90;;;;;;10404665;28;20219;-73
2022/09/17 21:30:02;;;;;;;7.03;1.40;;;11.00;99.90;;;;;;10395971;28;20220;-73
2022/09/17 21:35:05;;;;;;;3.20;1.20;;;11.10;99.90;;;;;;10380183;28;20641;-74
2022/09/17 21:40:07;;;;;;;2.73;1.07;;;11.20;99.90;;;;;;10401239;28;20252;-74
2022/09/17 21:45:07;;;;;;;2.43;1.03;;;11.30;99.90;;;;;;10403049;28;20230;-75
2022/09/17 21:50:08;;;;;;;1.90;1.10;;;11.30;99.90;;;;;;10404679;28;20272;-76
2022/09/17 21:55:10;;;;;;;3.67;1.03;;;11.30;99.90;;;;;;10391410;28;20661;-74
2022/09/17 22:00:11;;;;;;;9.63;2.53;;;11.30;99.90;;;;;;10402071;28;20216;-74
2022/09/17 22:05:12;;;;;;;2.53;1.30;;;11.30;99.90;;;;;;10405645;28;20176;-74
2022/09/17 22:10:14;;;;;;;4.50;1.23;;;11.40;99.90;;;;;;10398303;28;20207;-74
2022/09/17 22:15:15;;;;;;;4.93;1.60;;;11.40;99.90;;;;;;10404168;28;20181;-75
2022/09/17 22:20:15;;;;;;;3.60;1.30;;;11.50;99.90;;;;;;10395921;28;20274;-75
2022/09/17 22:25:16;;;;;;;7.20;1.20;;;11.50;99.90;;;;;;10392751;28;20203;-74
2022/09/17 22:30:16;;;;;;;4.47;1.30;;;11.60;99.90;;;;;;10399528;28;20185;-74
2022/09/17 22:35:17;;;;;;;8.10;2.53;;;11.60;99.90;;;;;;10407152;28;20551;-73
2022/09/17 22:40:18;;;;;;;4.03;1.60;;;11.60;99.90;;;;;;10388673;28;20217;-74
2022/09/17 22:45:18;;;;;;;7.47;1.47;;;11.60;99.90;;;;;;10400222;28;20185;-73
2022/09/17 22:50:19;;;;;;;5.10;1.50;;;11.70;99.90;;;;;;10394188;28;20189;-73
2022/09/17 22:55:19;;;;;;;8.10;1.90;;;11.70;99.90;;;;;;10396020;28;20209;-72
2022/09/17 23:00:20;;;;;;;5.50;1.77;;;11.70;99.90;;;;;;10397445;28;20581;-72
2022/09/17 23:05:20;;;;;;;7.93;1.50;;;11.70;99.90;;;;;;10402243;28;20220;-74
2022/09/17 23:10:21;;;;;;;4.10;1.53;;;11.70;99.90;;;;;;10408844;28;20285;-73
2022/09/17 23:15:26;;;;;;;6.57;1.63;;;11.70;99.90;;;;;;10416254;28;20189;-73
2022/09/17 23:20:26;;;;;;;3.77;1.50;;;11.70;99.90;;;;;;10399780;28;20314;-73
2022/09/17 23:25:27;;;;;;;7.10;1.63;;;11.70;99.90;;;;;;10407439;28;20287;-73
2022/09/17 23:30:28;;;;;;;9.73;1.80;;;11.60;99.90;;;;;;10397048;28;20271;-73
2022/09/17 23:35:28;;;;;;;7.37;1.67;;;11.60;99.90;;;;;;10406596;28;20224;-72
2022/09/17 23:40:29;;;;;;;6.70;1.67;;;11.60;99.90;;;;;;10398257;28;20323;-73
2022/09/17 23:45:30;;;;;;;7.77;1.80;;;11.60;99.90;;;;;;10408912;28;20240;-74
2022/09/17 23:50:30;;;;;;;4.63;1.50;;;11.60;99.90;;;;;;10411574;28;20236;-74
2022/09/17 23:55:31;;;;;;;7.87;1.80;;;11.70;99.90;;;;;;10406094;28;20568;-73
